Dades meteomassalio
Diari Summary for Marc 1, 2017 Units:  Metric    English   Both
« Previous Day
Next Day »
Diari Semanal Mensual Anual Personalitzat
  Maxima: Minima: Mijana:
Temperatura: -17.8 °C -14.4 °C -11.6 °C
Rosada: -17.8 °C -16.4 °C -15.1 °C
Humitat: Humidity % 46 % 67 %
Velocitat del vent: 0 km/h 0 km/h 12.2 km/h
Racha vent: 0 km/h - -
Vent:- - SW
Pressio: 0 hPa 34462.7 hPa -
Pluja: 0 mm    
Historical Graphs
 
 
Tabular Data for Marc 1, 2017
Time Temperature Dew Point Pressure Wind Wind Speed Wind Gust Humidity Rainfall Rate (Hourly) solar Conditions
-17.8 °C -17.8 °C 0 hPa Calm     Humidity % 0 mm SolarRadiationWatts/m^2 W/m2 Conditions
00:01 -13 °C -15.4 °C 34476.3 hPa West 26.9 km/h 26.9 km/h 74 % 0 mm 0.0 W/m2 CLR
00:06 -13 °C -15.3 °C 34476.3 hPa WNW 28.5 km/h 28.5 km/h 75 % 0 mm 0.0 W/m2 CLR
00:11 -13 °C -15.3 °C 34476.3 hPa West 29.8 km/h 29.8 km/h 75 % 0 mm 0.0 W/m2 CLR
00:16 -13 °C -15.3 °C 34476.3 hPa West 31.1 km/h 31.1 km/h 75 % 0 mm 0.0 W/m2 CLR
00:21 -13.1 °C -15.3 °C 34476.3 hPa NW 32.8 km/h 32.8 km/h 76 % 0 mm 0.0 W/m2 CLR
00:26 -13.1 °C -15.3 °C 34476.3 hPa West 29.8 km/h 29.8 km/h 76 % 0 mm 0.0 W/m2 CLR
00:31 -13.1 °C -15.2 °C 34476.3 hPa WNW 31.1 km/h 31.1 km/h 77 % 0 mm 0.0 W/m2 CLR
00:36 -13.1 °C -15.1 °C 34486.4 hPa West 29.8 km/h 29.8 km/h 78 % 0 mm 0.0 W/m2 CLR
00:41 -13.2 °C -15.2 °C 34486.4 hPa West 20.9 km/h 20.9 km/h 78 % 0 mm 0.0 W/m2 CLR
00:46 -13.2 °C -15.2 °C 34476.3 hPa West 23.8 km/h 23.8 km/h 78 % 0 mm 0.0 W/m2 CLR
00:51 -13.2 °C -15.2 °C 34476.3 hPa West 23.3 km/h 23.3 km/h 78 % 0 mm 0.0 W/m2 CLR
00:56 -13.2 °C -15.2 °C 34486.4 hPa West 35.7 km/h 35.7 km/h 78 % 0 mm 0.0 W/m2 CLR
01:01 -13.2 °C -15.2 °C 34486.4 hPa WNW 29.8 km/h 29.8 km/h 79 % 0 mm 0.0 W/m2 CLR
01:06 -13.2 °C -15.2 °C 34496.6 hPa WSW 29.8 km/h 29.8 km/h 79 % 0 mm 0.0 W/m2 CLR
01:11 -13.2 °C -15.2 °C 34486.4 hPa West 29.8 km/h 29.8 km/h 79 % 0 mm 0.0 W/m2 CLR
01:16 -13.2 °C -15.2 °C 34486.4 hPa WNW 32.8 km/h 32.8 km/h 78 % 0 mm 0.0 W/m2 CLR
01:21 -13.2 °C -15.2 °C 34486.4 hPa West 33.6 km/h 33.6 km/h 78 % 0 mm 0.0 W/m2 CLR
01:26 -13.2 °C -15.2 °C 34486.4 hPa West 31.1 km/h 31.1 km/h 78 % 0 mm 0.0 W/m2 CLR
01:31 -13.1 °C -15.2 °C 34486.4 hPa SW 29.8 km/h 29.8 km/h 77 % 0 mm 0.0 W/m2 CLR
01:32 -13.1 °C -15.2 °C 34486.4 hPa WSW 29.8 km/h 29.8 km/h 77 % 0 mm 0.0 W/m2 CLR
01:37 -13.1 °C -15.2 °C 34486.4 hPa West 35.7 km/h 35.7 km/h 77 % 0 mm 0.0 W/m2 CLR
01:42 -13.1 °C -15.2 °C 34496.6 hPa West 29.8 km/h 29.8 km/h 77 % 0 mm 0.0 W/m2 CLR
01:47 -13.1 °C -15.3 °C 34496.6 hPa West 35.7 km/h 35.7 km/h 76 % 0 mm 0.0 W/m2 CLR
01:52 -13.1 °C -15.3 °C 34496.6 hPa West 23.8 km/h 23.8 km/h 76 % 0 mm 0.0 W/m2 CLR
01:57 -13 °C -15.2 °C 34496.6 hPa WNW 41.7 km/h 41.7 km/h 76 % 0 mm 0.0 W/m2 CLR
02:02 -13.1 °C -15.4 °C 34496.6 hPa West 33.6 km/h 33.6 km/h 75 % 0 mm 0.0 W/m2 CLR
02:07 -13 °C -15.3 °C 34496.6 hPa WNW 23.8 km/h 23.8 km/h 75 % 0 mm 0.0 W/m2 CLR
02:12 -13 °C -15.3 °C 34496.6 hPa West 23.8 km/h 23.8 km/h 75 % 0 mm 0.0 W/m2 CLR
02:17 -13 °C -15.4 °C 34486.4 hPa WNW 28.5 km/h 28.8 km/h 74 % 0 mm 0.0 W/m2 CLR
02:22 -13 °C -15.4 °C 34496.6 hPa West 29.8 km/h 29.8 km/h 74 % 0 mm 0.0 W/m2 CLR
02:27 -13 °C -15.4 °C 34486.4 hPa WSW 29.8 km/h 29.8 km/h 74 % 0 mm 0.0 W/m2 CLR
02:32 -13 °C -15.4 °C 34486.4 hPa West 32.8 km/h 32.8 km/h 74 % 0 mm 0.0 W/m2 CLR
02:37 -12.9 °C -15.4 °C 34486.4 hPa West 29.8 km/h 29.8 km/h 73 % 0 mm 0.0 W/m2 CLR
02:42 -13 °C -15.5 °C 34486.4 hPa WNW 38.8 km/h 38.8 km/h 73 % 0 mm 0.0 W/m2 CLR
02:47 -13 °C -15.5 °C 34486.4 hPa West 38.8 km/h 38.8 km/h 73 % 0 mm 0.0 W/m2 CLR
02:52 -13 °C -15.6 °C 34486.4 hPa West 36.2 km/h 36.2 km/h 73 % 0 mm 0.0 W/m2 CLR
02:57 -13 °C -15.7 °C 34486.4 hPa West 41.7 km/h 41.7 km/h 72 % 0 mm 0.0 W/m2 CLR
03:02 -13.1 °C -15.7 °C 34486.4 hPa WNW 23.3 km/h 23.3 km/h 72 % 0 mm 0.0 W/m2 CLR
03:07 -13.1 °C -15.8 °C 34486.4 hPa West 20.9 km/h 20.9 km/h 72 % 0 mm 0.0 W/m2 CLR
03:12 -13.2 °C -15.8 °C 34486.4 hPa West 32.8 km/h 32.8 km/h 72 % 0 mm 0.0 W/m2 CLR
03:17 -13.2 °C -15.8 °C 34486.4 hPa West 20.9 km/h 20.9 km/h 72 % 0 mm 0.0 W/m2 CLR
03:22 -13.2 °C -15.8 °C 34486.4 hPa WSW 23.8 km/h 23.8 km/h 72 % 0 mm 0.0 W/m2 CLR
03:27 -13.2 °C -15.7 °C 34486.4 hPa WSW 29.8 km/h 29.8 km/h 73 % 0 mm 0.0 W/m2 CLR
03:32 -13.3 °C -15.8 °C 34496.6 hPa West 23.8 km/h 23.8 km/h 73 % 0 mm 0.0 W/m2 CLR
03:37 -13.3 °C -15.7 °C 34496.6 hPa West 20.9 km/h 20.9 km/h 74 % 0 mm 0.0 W/m2 CLR
03:42 -13.3 °C -15.7 °C 34496.6 hPa West 18.2 km/h 18.2 km/h 74 % 0 mm 0.0 W/m2 CLR
03:47 -13.3 °C -15.7 °C 34496.6 hPa West 23.8 km/h 23.8 km/h 74 % 0 mm 0.0 W/m2 CLR
03:52 -13.3 °C -15.8 °C 34496.6 hPa WSW 20.9 km/h 20.9 km/h 73 % 0 mm 0.0 W/m2 CLR
03:57 -13.3 °C -15.8 °C 34510.1 hPa Calm     73 % 0 mm 0.0 W/m2 CLR
04:02 -13.4 °C -15.8 °C 34510.1 hPa SW 3.1 km/h   74 % 0 mm 0.0 W/m2 CLR
04:07 -13.5 °C -15.9 °C 34510.1 hPa WSW 9 km/h 9 km/h 74 % 0 mm 0.0 W/m2 CLR
04:12 -13.6 °C -15.9 °C 34510.1 hPa WSW 6 km/h 6 km/h 75 % 0 mm 0.0 W/m2 CLR
04:17 -13.6 °C -15.9 °C 34510.1 hPa West 9 km/h 9 km/h 75 % 0 mm 0.0 W/m2 CLR
04:22 -13.6 °C -15.9 °C 34510.1 hPa WSW 15 km/h 15 km/h 75 % 0 mm 0.0 W/m2 CLR
04:27 -13.7 °C -15.9 °C 34510.1 hPa West 20.9 km/h 20.9 km/h 75 % 0 mm 0.0 W/m2 CLR
04:33 -13.7 °C -16.1 °C 34510.1 hPa West 20.9 km/h 20.9 km/h 74 % 0 mm 0.0 W/m2 CLR
04:38 -13.6 °C -16.1 °C 34510.1 hPa West 20.9 km/h 20.9 km/h 73 % 0 mm 0.0 W/m2 CLR
04:43 -13.6 °C -16.1 °C 34510.1 hPa West 20.9 km/h 21.2 km/h 73 % 0 mm 0.0 W/m2 CLR
04:48 -13.5 °C -16.1 °C 34510.1 hPa West 29.8 km/h 29.8 km/h 72 % 0 mm 0.0 W/m2 CLR
04:53 -13.6 °C -16.2 °C 34510.1 hPa West 29.8 km/h 29.8 km/h 72 % 0 mm 0.0 W/m2 CLR
04:58 -13.6 °C -16.2 °C 34510.1 hPa West 29.8 km/h 29.8 km/h 72 % 0 mm 0.0 W/m2 CLR
05:03 -13.4 °C -16.1 °C 34510.1 hPa WNW 29.8 km/h 29.8 km/h 72 % 0 mm 0.0 W/m2 CLR
05:08 -13.4 °C -16.1 °C 34510.1 hPa West 29.8 km/h 29.8 km/h 72 % 0 mm 0.0 W/m2 CLR
05:13 -13.4 °C -16.1 °C 34510.1 hPa West 29.8 km/h 29.8 km/h 72 % 0 mm 0.0 W/m2 CLR
05:18 -13.4 °C -16 °C 34520.3 hPa West 32.8 km/h 32.8 km/h 72 % 0 mm 0.0 W/m2 CLR
05:23 -13.3 °C -16.1 °C 34520.3 hPa West 32.8 km/h 32.8 km/h 71 % 0 mm 0.0 W/m2 CLR
05:28 -13.4 °C -16 °C 34520.3 hPa West 26.9 km/h 26.9 km/h 72 % 0 mm 0.0 W/m2 CLR
05:33 -13.4 °C -16 °C 34520.3 hPa West 29.8 km/h 29.8 km/h 72 % 0 mm 0.0 W/m2 CLR
05:38 -13.3 °C -15.9 °C 34520.3 hPa West 38.8 km/h 38.8 km/h 72 % 0 mm 0.0 W/m2 CLR
05:43 -13.3 °C -15.9 °C 34520.3 hPa West 35.7 km/h 35.7 km/h 72 % 0 mm 0.0 W/m2 CLR
05:48 -13.2 °C -15.9 °C 34520.3 hPa WNW 29.8 km/h 29.8 km/h 72 % 0 mm 0.0 W/m2 CLR
05:53 -13.3 °C -15.9 °C 34520.3 hPa West 31.1 km/h 31.1 km/h 72 % 0 mm 0.0 W/m2 CLR
05:58 -13.3 °C -15.9 °C 34520.3 hPa WNW 23.8 km/h 23.8 km/h 72 % 0 mm 0.0 W/m2 CLR
06:03 -13.3 °C -15.9 °C 34520.3 hPa West 29.8 km/h 29.8 km/h 73 % 0 mm 0.0 W/m2 CLR
06:08 -13.4 °C -15.9 °C 34520.3 hPa WSW 23.8 km/h 23.8 km/h 73 % 0 mm 0.0 W/m2 CLR
06:13 -13.4 °C -15.9 °C 34520.3 hPa West 29.8 km/h 29.8 km/h 73 % 0 mm 0.0 W/m2 CLR
06:18 -13.4 °C -15.9 °C 34520.3 hPa West 29.8 km/h 29.8 km/h 73 % 0 mm 0.0 W/m2 CLR
06:23 -13.4 °C -15.9 °C 34520.3 hPa NW 17.9 km/h 17.9 km/h 73 % 0 mm 0.0 W/m2 CLR
06:28 -13.7 °C -16.1 °C 34520.3 hPa WNW 17.9 km/h 17.9 km/h 74 % 0 mm 0.0 W/m2 CLR
06:33 -13.8 °C -16.1 °C 34520.3 hPa WNW 15 km/h 15 km/h 75 % 0 mm 0.0 W/m2 CLR
06:38 -13.8 °C -16 °C 34520.3 hPa Calm     76 % 0 mm 0.0 W/m2 CLR
06:43 -13.8 °C -16.1 °C 34533.8 hPa WNW 20.9 km/h 20.9 km/h 75 % 0 mm 0.0 W/m2 CLR
06:48 -13.7 °C -16 °C 34533.8 hPa Calm     75 % 0 mm 0.0 W/m2 CLR
06:53 -13.8 °C -16.1 °C 34520.3 hPa Calm     75 % 0 mm 0.0 W/m2 CLR
06:58 -13.9 °C -16.1 °C 34520.3 hPa Calm     76 % 0 mm 0.0 W/m2 CLR
07:03 -14 °C -16.2 °C 34520.3 hPa Calm     76 % 0 mm 0.0 W/m2 CLR
07:08 -14.1 °C -16.2 °C 34520.3 hPa Calm     77 % 0 mm 0.0 W/m2 CLR
07:13 -14.1 °C -16.2 °C 34533.8 hPa Calm     77 % 0 mm 0.0 W/m2 CLR
07:18 -14.1 °C -16.2 °C 34533.8 hPa Calm     77 % 0 mm 0.0 W/m2 CLR
07:23 -14.1 °C -16.2 °C 34533.8 hPa Calm     77 % 0 mm 0.0 W/m2 OVC
07:28 -14.3 °C -16.3 °C 34533.8 hPa Calm     77 % 0 mm 0.0 W/m2 OVC
07:33 -14.4 °C -16.3 °C 34533.8 hPa Calm     78 % 0 mm 0.0 W/m2 OVC
07:38 -14.4 °C -16.3 °C 34533.8 hPa Calm     78 % 0 mm 5.0 W/m2 OVC
07:43 -14.4 °C -16.3 °C 34544 hPa Calm     79 % 0 mm 7.0 W/m2 BKN
07:48 -14.4 °C -16.4 °C 34544 hPa Calm     78 % 0 mm 11.0 W/m2 BKN
07:53 -14.4 °C -16.3 °C 34554.1 hPa Calm     79 % 0 mm 14.0 W/m2 BKN
07:58 -14.4 °C -16.3 °C 34554.1 hPa Calm     79 % 0 mm 19.0 W/m2 BKN
08:03 -14.3 °C -16.3 °C 34554.1 hPa Calm     78 % 0 mm 25.0 W/m2 BKN
08:08 -14.2 °C -16.2 °C 34554.1 hPa Calm     78 % 0 mm 35.0 W/m2 BKN
08:13 -14.1 °C -16.1 °C 34554.1 hPa Calm     78 % 0 mm 39.0 W/m2 BKN
08:18 -14.1 °C -16.3 °C 34554.1 hPa Calm     76 % 0 mm 35.0 W/m2 BKN
08:23 -14.2 °C -16.3 °C 34554.1 hPa Calm     77 % 0 mm 65.0 W/m2 SCT
08:28 -14.3 °C -16.2 °C 34567.7 hPa Calm     78 % 0 mm 81.0 W/m2 FEW
08:33 -14.2 °C -16.2 °C 34567.7 hPa Calm     78 % 0 mm 91.0 W/m2 CLR
08:38 -14.1 °C -16.1 °C 34567.7 hPa Calm     78 % 0 mm 121.0 W/m2 FEW
08:43 -13.9 °C -15.9 °C 34567.7 hPa Calm     78 % 0 mm 69.0 W/m2 CLR
08:48 -13.8 °C -15.8 °C 34567.7 hPa Calm     78 % 0 mm 47.0 W/m2 FEW
08:53 -13.8 °C -15.9 °C 34567.7 hPa Calm     77 % 0 mm 62.0 W/m2 SCT
08:58 -13.9 °C -15.9 °C 34567.7 hPa Calm     78 % 0 mm 153.0 W/m2 FEW
09:03 -13.8 °C -15.8 °C 34577.8 hPa Calm     78 % 0 mm 97.0 W/m2 CLR
09:08 -13.7 °C -15.7 °C 34567.7 hPa Calm     78 % 0 mm 221.0 W/m2 CLR
09:13 -13.4 °C -15.4 °C 34577.8 hPa Calm     78 % 0 mm 236.0 W/m2 CLR
09:18 -13.2 °C -15.4 °C 34577.8 hPa SW 6 km/h   76 % 0 mm 253.0 W/m2 CLR
09:23 -13 °C -15.4 °C 34577.8 hPa Calm     74 % 0 mm 269.0 W/m2 CLR
09:28 -12.8 °C -15.2 °C 34567.7 hPa Calm     74 % 0 mm 283.0 W/m2 CLR
09:33 -12.5 °C -15.2 °C 34577.8 hPa Calm     72 % 0 mm 299.0 W/m2 CLR
09:38 -12.4 °C -15.4 °C 34567.7 hPa Calm     69 % 0 mm 313.0 W/m2 CLR
09:43 -12.2 °C -15.3 °C 34577.8 hPa Calm     68 % 0 mm 325.0 W/m2 CLR
09:48 -12.1 °C -15.5 °C 34577.8 hPa Calm     65 % 0 mm 343.0 W/m2 CLR
09:53 -11.9 °C -15.6 °C 34577.8 hPa Calm     64 % 0 mm 355.0 W/m2 CLR
09:58 -11.7 °C -15.2 °C 34567.7 hPa Calm     65 % 0 mm 367.0 W/m2 CLR
10:03 -11.6 °C -15.4 °C 34567.7 hPa SSE 2.6 km/h 3.9 km/h 62 % 0 mm 380.0 W/m2 CLR
10:08 -11.6 °C -15.4 °C 34567.7 hPa Calm     62 % 0 mm 396.0 W/m2 CLR
10:13 -11.5 °C -15.1 °C 34567.7 hPa Calm     64 % 0 mm 406.0 W/m2 CLR
10:19 -11.3 °C -15.2 °C 34577.8 hPa ESE 3.1 km/h   63 % 0 mm 420.0 W/m2 CLR
10:24 -11.2 °C -15.2 °C 34577.8 hPa East 3.1 km/h   62 % 0 mm 432.0 W/m2 CLR
10:29 -11.1 °C -15.1 °C 34577.8 hPa Calm     62 % 0 mm 446.0 W/m2 CLR
10:34 -10.9 °C -14.9 °C 34577.8 hPa Calm     62 % 0 mm 459.0 W/m2 CLR
10:39 -10.8 °C -14.8 °C 34577.8 hPa SW 10.3 km/h 10.3 km/h 62 % 0 mm 471.0 W/m2 CLR
10:44 -10.7 °C -14.7 °C 34577.8 hPa Calm     62 % 0 mm 480.0 W/m2 CLR
10:49 -10.6 °C -14.6 °C 34577.8 hPa Calm     61 % 0 mm 492.0 W/m2 CLR
10:54 -10.4 °C -14.3 °C 34577.8 hPa NNW 23.8 km/h 23.8 km/h 63 % 0 mm 503.0 W/m2 CLR
10:59 -10.6 °C -14.5 °C 34577.8 hPa NW 15 km/h 15 km/h 62 % 0 mm 513.0 W/m2 CLR
11:04 -10.6 °C -14.4 °C 34577.8 hPa NW 29.8 km/h 29.8 km/h 63 % 0 mm 522.0 W/m2 CLR
11:09 -10.6 °C -14.6 °C 34577.8 hPa West 23.8 km/h 23.8 km/h 62 % 0 mm 533.0 W/m2 CLR
11:14 -10.4 °C -14.3 °C 34577.8 hPa NW 17.9 km/h 17.9 km/h 63 % 0 mm 541.0 W/m2 CLR
11:19 -10.4 °C -14.5 °C 34577.8 hPa WNW 15 km/h 15 km/h 61 % 0 mm 550.0 W/m2 CLR
11:24 -10.3 °C -14.3 °C 34577.8 hPa NW 38.8 km/h 38.8 km/h 62 % 0 mm 563.0 W/m2 CLR
11:29 -10.3 °C -14.4 °C 34577.8 hPa West 35.7 km/h 35.7 km/h 61 % 0 mm 570.0 W/m2 CLR
11:34 -10.2 °C -14.4 °C 34577.8 hPa WNW 41.7 km/h 41.7 km/h 60 % 0 mm 577.0 W/m2 CLR
11:39 -10.2 °C -14.3 °C 34577.8 hPa NW 32.8 km/h 32.8 km/h 61 % 0 mm 585.0 W/m2 CLR
11:49 -10 °C -14.3 °C 34567.7 hPa NW 41.7 km/h 41.7 km/h 60 % 0 mm 601.0 W/m2 CLR
11:54 -9.9 °C -14.3 °C 34554.1 hPa NNW 29.8 km/h 29.8 km/h 59 % 0 mm 606.0 W/m2 CLR
11:59 -9.9 °C -14.3 °C 34554.1 hPa WNW 47.6 km/h 47.6 km/h 59 % 0 mm 613.0 W/m2 CLR
12:04 -9.8 °C -14.2 °C 34554.1 hPa WNW 36.2 km/h 36.2 km/h 59 % 0 mm 621.0 W/m2 CLR
12:09 -9.8 °C -14.3 °C 34554.1 hPa NNW 26.9 km/h 26.9 km/h 58 % 0 mm 624.0 W/m2 CLR
12:14 -9.7 °C -14.4 °C 34554.1 hPa NW 32.8 km/h 32.8 km/h 57 % 0 mm 631.0 W/m2 CLR
12:19 -9.7 °C -14.5 °C 34554.1 hPa NW 32.8 km/h 32.8 km/h 56 % 0 mm 633.0 W/m2 CLR
12:24 -9.7 °C -14.5 °C 34554.1 hPa NW 32.8 km/h 32.8 km/h 56 % 0 mm 640.0 W/m2 CLR
12:29 -9.6 °C -14.4 °C 34554.1 hPa NW 3.1 km/h   56 % 0 mm 642.0 W/m2 CLR
12:34 -9.6 °C -14.5 °C 34554.1 hPa NW 31.1 km/h 31.1 km/h 55 % 0 mm 645.0 W/m2 CLR
12:39 -9.5 °C -14.6 °C 34554.1 hPa NNW 11.9 km/h 17.9 km/h 54 % 0 mm 649.0 W/m2 CLR
12:45 -9.4 °C -14.5 °C 34544 hPa NW 32.8 km/h 32.8 km/h 54 % 0 mm 652.0 W/m2 CLR
12:50 -9.3 °C -14.5 °C 34544 hPa NNW 29.8 km/h 29.8 km/h 54 % 0 mm 656.0 W/m2 CLR
12:55 -9.3 °C -14.4 °C 34544 hPa NW 26.9 km/h 26.9 km/h 54 % 0 mm 656.0 W/m2 CLR
13:00 -9.1 °C -14.4 °C 34533.8 hPa WNW 23.8 km/h 23.8 km/h 53 % 0 mm 657.0 W/m2 CLR
13:05 -9.1 °C -14.6 °C 34533.8 hPa Calm   0.3 km/h 52 % 0 mm 659.0 W/m2 CLR
13:10 -9.1 °C -14.7 °C 34520.3 hPa North 20.8 km/h 20.8 km/h 51 % 0 mm 661.0 W/m2 CLR
13:15 -9.1 °C -14.6 °C 34520.3 hPa North 9 km/h 9 km/h 52 % 0 mm 659.0 W/m2 CLR
13:20 -9 °C -14.5 °C 34520.3 hPa NNW 9 km/h 10.3 km/h 52 % 0 mm 661.0 W/m2 CLR
13:21 -9 °C -14.5 °C 34520.3 hPa NNW 20.8 km/h 20.8 km/h 52 % 0 mm 661.0 W/m2 CLR
13:26 -9 °C -14.4 °C 34520.3 hPa WNW 17.9 km/h 17.9 km/h 52 % 0 mm 659.0 W/m2 CLR
13:31 -9 °C -14.6 °C 34520.3 hPa North 26.9 km/h 26.9 km/h 51 % 0 mm 656.0 W/m2 CLR
13:36 -9 °C -14.5 °C 34520.3 hPa North 5.1 km/h 5.1 km/h 52 % 0 mm 657.0 W/m2 CLR
13:41 -8.9 °C -14.4 °C 34520.3 hPa North 17.9 km/h 17.9 km/h 52 % 0 mm 656.0 W/m2 CLR
13:46 -8.9 °C -14.6 °C 34520.3 hPa NNE 26.9 km/h 26.9 km/h 51 % 0 mm 652.0 W/m2 CLR
13:51 -8.9 °C -14.2 °C 34510.1 hPa NNE 25.9 km/h 25.9 km/h 53 % 0 mm 649.0 W/m2 CLR
13:56 -8.9 °C -14.7 °C 34510.1 hPa NNE 15 km/h 15 km/h 50 % 0 mm 647.0 W/m2 CLR
14:01 -8.9 °C -14.7 °C 34510.1 hPa North 23.8 km/h 23.8 km/h 50 % 0 mm 643.0 W/m2 CLR
14:06 -8.9 °C -14.6 °C 34510.1 hPa NNW 15 km/h 15 km/h 51 % 0 mm 640.0 W/m2 CLR
14:11 -8.7 °C -14.4 °C 34510.1 hPa NNE 3.1 km/h 3.1 km/h 51 % 0 mm 635.0 W/m2 CLR
14:16 -8.7 °C -14.6 °C 34496.6 hPa North 29.8 km/h 29.8 km/h 49 % 0 mm 631.0 W/m2 CLR
14:21 -8.7 °C -14.7 °C 34496.6 hPa NE 17.9 km/h 17.9 km/h 49 % 0 mm 626.0 W/m2 CLR
14:26 -8.7 °C -14.7 °C 34496.6 hPa North 26.9 km/h 26.9 km/h 49 % 0 mm 619.0 W/m2 CLR
14:31 -8.7 °C -14.6 °C 34496.6 hPa NNW 6 km/h   49 % 0 mm 612.0 W/m2 CLR
14:36 -8.6 °C -14.7 °C 34496.6 hPa NNE 3.1 km/h   48 % 0 mm 606.0 W/m2 CLR
14:41 -8.4 °C -14.6 °C 34496.6 hPa NNE 6 km/h 6 km/h 48 % 0 mm 601.0 W/m2 CLR
14:46 -8.4 °C -14.6 °C 34496.6 hPa NNE 6 km/h 6 km/h 48 % 0 mm 594.0 W/m2 CLR
14:51 -8.4 °C -14.6 °C 34496.6 hPa North 9 km/h 9 km/h 48 % 0 mm 589.0 W/m2 CLR
14:56 -8.3 °C -14.3 °C 34486.4 hPa ENE 3.1 km/h   49 % 0 mm 580.0 W/m2 CLR
15:01 -8.2 °C -14.4 °C 34486.4 hPa NE 23.3 km/h 23.3 km/h 48 % 0 mm 573.0 W/m2 CLR
15:06 -8.3 °C -14.4 °C 34486.4 hPa ENE 26.9 km/h 26.9 km/h 48 % 0 mm 563.0 W/m2 CLR
15:11 -8.3 °C -14.3 °C 34486.4 hPa NNE 20.9 km/h 20.9 km/h 49 % 0 mm 552.0 W/m2 CLR
15:16 -8.3 °C -14.5 °C 34486.4 hPa North 7.7 km/h 7.7 km/h 48 % 0 mm 543.0 W/m2 CLR
15:21 -8.4 °C -14.4 °C 34486.4 hPa NNE 17.9 km/h 17.9 km/h 49 % 0 mm 534.0 W/m2 CLR
15:26 -8.4 °C -14.6 °C 34486.4 hPa ENE 9 km/h   48 % 0 mm 526.0 W/m2 CLR
15:31 -8.3 °C -14.3 °C 34476.3 hPa North 20.9 km/h 20.9 km/h 49 % 0 mm 513.0 W/m2 CLR
15:37 -8.3 °C -14.3 °C 34486.4 hPa NE 6 km/h 6 km/h 49 % 0 mm 504.0 W/m2 CLR
15:41 -8.3 °C -14.7 °C 34486.4 hPa NE 20.9 km/h 20.9 km/h 47 % 0 mm 494.0 W/m2 CLR
15:47 -8.3 °C -14.5 °C 34476.3 hPa Calm     48 % 0 mm 482.0 W/m2 CLR
15:52 -8.2 °C -14.6 °C 34486.4 hPa Calm     47 % 0 mm 471.0 W/m2 CLR
15:57 -8.3 °C -14.8 °C 34486.4 hPa East 6 km/h 6 km/h 46 % 0 mm 457.0 W/m2 CLR
16:02 -8.4 °C -14.8 °C 34476.3 hPa ENE 9 km/h 9 km/h 47 % 0 mm 445.0 W/m2 CLR
16:07 -8.5 °C -14.5 °C 34476.3 hPa ESE 2.6 km/h 2.6 km/h 49 % 0 mm 432.0 W/m2 CLR
16:12 -8.4 °C -14.4 °C 34476.3 hPa NE 23.3 km/h 23.3 km/h 49 % 0 mm 418.0 W/m2 CLR
16:17 -8.4 °C -14.6 °C 34476.3 hPa NNW 23.8 km/h 23.8 km/h 48 % 0 mm 406.0 W/m2 CLR
16:22 -8.4 °C -14.6 °C 34476.3 hPa Calm     48 % 0 mm 392.0 W/m2 CLR
16:27 -8.3 °C -14.7 °C 34476.3 hPa Calm     47 % 0 mm 378.0 W/m2 CLR
16:32 -8.3 °C -14.4 °C 34476.3 hPa Calm     48 % 0 mm 366.0 W/m2 CLR
16:37 -8.2 °C -14.6 °C 34476.3 hPa NE 9 km/h 9 km/h 47 % 0 mm 350.0 W/m2 CLR
16:42 -8.2 °C -14.6 °C 34476.3 hPa ENE 10.3 km/h 10.3 km/h 47 % 0 mm 338.0 W/m2 CLR
16:47 -8.2 °C -14.6 °C 34476.3 hPa Calm     47 % 0 mm 323.0 W/m2 CLR
16:52 -8.2 °C -14.4 °C 34476.3 hPa Calm     48 % 0 mm 309.0 W/m2 CLR
16:57 -8.1 °C -14.4 °C 34476.3 hPa Calm     47 % 0 mm 294.0 W/m2 CLR
17:02 -8.1 °C -14.6 °C 34476.3 hPa Calm     46 % 0 mm 279.0 W/m2 CLR
17:07 -8.1 °C -14.6 °C 34476.3 hPa Calm     46 % 0 mm 265.0 W/m2 CLR
17:12 -8.2 °C -14.7 °C 34476.3 hPa Calm     46 % 0 mm 250.0 W/m2 CLR
17:17 -8.2 °C -14.6 °C 34476.3 hPa Calm     47 % 0 mm 230.0 W/m2 CLR
17:22 -8.2 °C -14.6 °C 34462.7 hPa ENE 9 km/h 9 km/h 47 % 0 mm 213.0 W/m2 CLR
17:27 -8.3 °C -14.8 °C 34462.7 hPa East 6 km/h 6 km/h 46 % 0 mm 195.0 W/m2 CLR
17:32 -8.4 °C -14.9 °C 34462.7 hPa Calm     46 % 0 mm 179.0 W/m2 CLR
17:37 -8.5 °C -14.9 °C 34462.7 hPa Calm     46 % 0 mm 162.0 W/m2 CLR
17:42 -8.5 °C -14.7 °C 34462.7 hPa Calm     48 % 0 mm 141.0 W/m2 CLR
17:47 -8.5 °C -14.8 °C 34462.7 hPa Calm     47 % 0 mm 125.0 W/m2 CLR
17:52 -8.6 °C -14.9 °C 34462.7 hPa ENE 9 km/h 9 km/h 47 % 0 mm 109.0 W/m2 CLR
17:57 -8.6 °C -14.9 °C 34462.7 hPa East 9 km/h 9 km/h 47 % 0 mm 95.0 W/m2 CLR
18:02 -8.6 °C -14.9 °C 34462.7 hPa East 6 km/h 6 km/h 47 % 0 mm 77.0 W/m2 FEW
18:07 -8.6 °C -14.9 °C 34476.3 hPa Calm     47 % 0 mm 56.0 W/m2 SCT
18:12 -8.6 °C -14.9 °C 34462.7 hPa East 6 km/h 6 km/h 47 % 0 mm 51.0 W/m2 SCT
18:17 -8.7 °C -14.8 °C 34476.3 hPa Calm     48 % 0 mm 40.0 W/m2 BKN
18:22 -8.7 °C -14.8 °C 34476.3 hPa Calm     48 % 0 mm 28.0 W/m2 BKN
18:27 -8.7 °C -14.8 °C 34476.3 hPa Calm     48 % 0 mm 18.0 W/m2 BKN
18:32 -8.7 °C -14.9 °C 34476.3 hPa Calm     48 % 0 mm 12.0 W/m2 BKN
18:37 -8.8 °C -14.7 °C 34476.3 hPa ESE 6 km/h 6 km/h 50 % 0 mm 11.0 W/m2 BKN
18:42 -9 °C -14.3 °C 34476.3 hPa ESE 9 km/h 9 km/h 53 % 0 mm 9.0 W/m2 BKN
18:47 -9.1 °C -14.1 °C 34476.3 hPa ESE 6 km/h 6 km/h 55 % 0 mm 5.0 W/m2 BKN
18:52 -9.2 °C -14.2 °C 34476.3 hPa Calm     55 % 0 mm 0.0 W/m2 OVC
18:57 -9.3 °C -14.1 °C 34476.3 hPa Calm     57 % 0 mm 0.0 W/m2 OVC
19:02 -9.5 °C -14.2 °C 34476.3 hPa Calm     57 % 0 mm 0.0 W/m2 CLR
19:07 -9.6 °C -14.1 °C 34486.4 hPa Calm     58 % 0 mm 0.0 W/m2 CLR
19:12 -9.7 °C -14.1 °C 34486.4 hPa Calm     59 % 0 mm 0.0 W/m2 CLR
19:17 -9.8 °C -14 °C 34486.4 hPa Calm     60 % 0 mm 0.0 W/m2 CLR
19:22 -9.8 °C -14 °C 34486.4 hPa Calm     61 % 0 mm 0.0 W/m2 CLR
19:27 -9.9 °C -13.9 °C 34486.4 hPa Calm     62 % 0 mm 0.0 W/m2 CLR
19:32 -10.1 °C -13.9 °C 34486.4 hPa Calm     63 % 0 mm 0.0 W/m2 CLR
19:37 -10.1 °C -13.9 °C 34486.4 hPa Calm     63 % 0 mm 0.0 W/m2 CLR
19:42 -10.2 °C -14 °C 34496.6 hPa Calm     63 % 0 mm 0.0 W/m2 CLR
19:47 -10.3 °C -13.9 °C 34486.4 hPa Calm     65 % 0 mm 0.0 W/m2 CLR
19:52 -10.5 °C -13.9 °C 34496.6 hPa Calm     66 % 0 mm 0.0 W/m2 CLR
19:57 -10.6 °C -14 °C 34496.6 hPa Calm     66 % 0 mm 0.0 W/m2 CLR
20:02 -10.7 °C -14.2 °C 34496.6 hPa Calm     66 % 0 mm 0.0 W/m2 CLR
20:07 -11 °C -14.3 °C 34496.6 hPa Calm     67 % 0 mm 0.0 W/m2 CLR
20:12 -11.3 °C -14.3 °C 34496.6 hPa Calm     69 % 0 mm 0.0 W/m2 CLR
20:17 -11.5 °C -14.4 °C 34496.6 hPa Calm     70 % 0 mm 0.0 W/m2 CLR
20:22 -11.6 °C -14.3 °C 34496.6 hPa Calm     72 % 0 mm 0.0 W/m2 CLR
20:27 -11.7 °C -14.3 °C 34496.6 hPa Calm     73 % 0 mm 0.0 W/m2 CLR
20:32 -11.8 °C -14.2 °C 34496.6 hPa Calm     74 % 0 mm 0.0 W/m2 CLR
20:33 -11.8 °C -14.2 °C 34496.6 hPa Calm     74 % 0 mm 0.0 W/m2 CLR
20:38 -11.8 °C -14.4 °C 34510.1 hPa Calm     73 % 0 mm 0.0 W/m2 CLR
20:43 -12.1 °C -14.6 °C 34510.1 hPa Calm     73 % 0 mm 0.0 W/m2 CLR
20:48 -12.2 °C -14.7 °C 34510.1 hPa Calm     74 % 0 mm 0.0 W/m2 CLR
20:53 -12.3 °C -14.7 °C 34510.1 hPa Calm     75 % 0 mm 0.0 W/m2 CLR
20:58 -12.4 °C -14.7 °C 34510.1 hPa Calm     76 % 0 mm 0.0 W/m2 CLR
21:03 -12.6 °C -14.7 °C 34510.1 hPa Calm     77 % 0 mm 0.0 W/m2 CLR
21:08 -12.6 °C -14.6 °C 34510.1 hPa Calm     78 % 0 mm 0.0 W/m2 CLR
21:13 -12.7 °C -14.7 °C 34510.1 hPa Calm     78 % 0 mm 0.0 W/m2 CLR
21:18 -12.7 °C -14.7 °C 34520.3 hPa Calm     78 % 0 mm 0.0 W/m2 CLR
21:23 -12.7 °C -14.7 °C 34520.3 hPa Calm     78 % 0 mm 0.0 W/m2 CLR
21:28 -12.7 °C -14.7 °C 34533.8 hPa Calm     78 % 0 mm 0.0 W/m2 CLR
21:33 -12.8 °C -14.7 °C 34533.8 hPa Calm     79 % 0 mm 0.0 W/m2 CLR
21:38 -12.9 °C -14.8 °C 34520.3 hPa Calm     79 % 0 mm 0.0 W/m2 CLR
21:43 -12.9 °C -14.9 °C 34520.3 hPa Calm     79 % 0 mm 0.0 W/m2 CLR
21:48 -13 °C -14.9 °C 34533.8 hPa Calm     79 % 0 mm 0.0 W/m2 CLR
21:53 -13.1 °C -14.9 °C 34533.8 hPa Calm     80 % 0 mm 0.0 W/m2 CLR
21:58 -13.2 °C -14.8 °C 34533.8 hPa Calm     81 % 0 mm 0.0 W/m2 CLR
22:03 -13.2 °C -14.9 °C 34533.8 hPa Calm     81 % 0 mm 0.0 W/m2 CLR
22:08 -13.3 °C -15 °C 34533.8 hPa Calm     81 % 0 mm 0.0 W/m2 CLR
22:13 -13.3 °C -14.9 °C 34544 hPa Calm     82 % 0 mm 0.0 W/m2 CLR
22:18 -13.3 °C -14.9 °C 34533.8 hPa Calm     82 % 0 mm 0.0 W/m2 CLR
22:23 -13.3 °C -14.8 °C 34533.8 hPa Calm     83 % 0 mm 0.0 W/m2 CLR
22:28 -13.3 °C -14.9 °C 34533.8 hPa Calm     82 % 0 mm 0.0 W/m2 CLR
22:33 -13.3 °C -14.9 °C 34544 hPa Calm     82 % 0 mm 0.0 W/m2 CLR
22:38 -13.3 °C -14.8 °C 34544 hPa Calm     83 % 0 mm 0.0 W/m2 CLR
22:43 -13.4 °C -14.9 °C 34544 hPa Calm     82 % 0 mm 0.0 W/m2 CLR
22:48 -13.4 °C -14.9 °C 34544 hPa Calm     83 % 0 mm 0.0 W/m2 CLR
22:53 -13.5 °C -15.1 °C 34544 hPa Calm     82 % 0 mm 0.0 W/m2 CLR
22:58 -13.6 °C -15.1 °C 34533.8 hPa SW 9 km/h 9 km/h 84 % 0 mm 0.0 W/m2 CLR
23:03 -13.7 °C -15.1 °C 34533.8 hPa Calm     84 % 0 mm 0.0 W/m2 CLR
23:08 -13.6 °C -14.9 °C 34533.8 hPa Calm     85 % 0 mm 0.0 W/m2 CLR
23:13 -13.6 °C -14.9 °C 34544 hPa Calm     85 % 0 mm 0.0 W/m2 CLR
23:18 -13.6 °C -14.9 °C 34544 hPa Calm     85 % 0 mm 0.0 W/m2 CLR
23:23 -13.6 °C -14.9 °C 34544 hPa Calm     85 % 0 mm 0.0 W/m2 CLR
23:28 -13.6 °C -14.9 °C 34544 hPa Calm     85 % 0 mm 0.0 W/m2 CLR
23:33 -13.6 °C -14.9 °C 34544 hPa Calm     85 % 0 mm 0.0 W/m2 CLR
23:38 -13.6 °C -14.9 °C 34544 hPa Calm     85 % 0 mm 0.0 W/m2 CLR
23:43 -13.6 °C -14.9 °C 34544 hPa Calm     85 % 0 mm 0.0 W/m2 CLR
23:48 -13.7 °C -14.9 °C 34544 hPa Calm     85 % 0 mm 0.0 W/m2 CLR
23:53 -13.7 °C -14.9 °C 34544 hPa Calm     86 % 0 mm 0.0 W/m2 CLR
23:58 -13.6 °C -14.7 °C 34544 hPa Calm     87 % 0 mm 0.0 W/m2 CLR
Lo Temps de Massalio
Compliments of Weather Underground - 1.25 mb